Time;durP1;ratioP1;P1;durP2;ratioP2;P2;SDS_P1;SDS_P2;PMS_P1;PMS_P2;Temp;Humidity;BMP_temperature;BMP_pressure;BME280_temperature;BME280_humidity;BME280_pressure;Samples;Min_cycle;Max_cycle;Signal;HPM_P1;HPM_P2
2021/06/15 00:01:13;;;;;;;5.80;3.83;;;;;;;;;;5074806;28;20498;-73
2021/06/15 00:03:39;;;;;;;5.53;4.33;;;;;;;;;;5074512;28;20971;-68
2021/06/15 00:06:05;;;;;;;5.47;3.80;;;;;;;;;;5073208;28;20474;-69
2021/06/15 00:08:31;;;;;;;5.80;3.70;;;;;;;;;;5074757;28;20406;-70
2021/06/15 00:10:57;;;;;;;4.53;3.40;;;;;;;;;;5074365;28;20772;-70
2021/06/15 00:13:23;;;;;;;7.40;3.80;;;;;;;;;;5074401;28;20398;-70
2021/06/15 00:15:50;;;;;;;5.03;4.00;;;;;;;;;;5074547;28;20446;-68
2021/06/15 00:18:16;;;;;;;4.73;3.83;;;;;;;;;;5074635;28;20414;-70
2021/06/15 00:20:43;;;;;;;4.23;3.83;;;;;;;;;;5072753;28;20877;-69
2021/06/15 00:23:09;;;;;;;5.00;4.60;;;;;;;;;;5073284;28;20780;-69
2021/06/15 00:28:39;;;;;;;3.97;3.67;;;;;;;;;;5073935;28;20413;-69
2021/06/15 00:31:05;;;;;;;5.77;3.80;;;;;;;;;;5073765;28;20422;-69
2021/06/15 00:33:31;;;;;;;4.80;4.20;;;;;;;;;;5073970;28;20417;-69
2021/06/15 00:35:57;;;;;;;3.73;3.43;;;;;;;;;;5074119;28;20457;-70
2021/06/15 00:38:23;;;;;;;4.40;4.00;;;;;;;;;;5072543;28;20426;-68
2021/06/15 00:43:52;;;;;;;4.80;4.27;;;;;;;;;;5073747;28;20463;-69
2021/06/15 00:46:18;;;;;;;5.33;4.10;;;;;;;;;;5072741;28;20473;-67
2021/06/15 00:48:44;;;;;;;3.77;3.37;;;;;;;;;;5073513;28;20406;-70
2021/06/15 00:51:11;;;;;;;4.00;3.60;;;;;;;;;;5073987;28;20406;-69
2021/06/15 00:53:37;;;;;;;5.83;4.27;;;;;;;;;;5073559;28;20897;-70
2021/06/15 00:59:06;;;;;;;5.50;4.10;;;;;;;;;;5073471;28;20428;-68
2021/06/15 01:01:32;;;;;;;6.60;4.20;;;;;;;;;;5073475;28;20505;-69
2021/06/15 01:03:58;;;;;;;4.30;3.93;;;;;;;;;;5073272;28;20446;-69
2021/06/15 01:06:34;;;;;;;4.90;4.40;;;;;;;;;;5072004;28;20560;-69
2021/06/15 01:09:06;;;;;;;4.37;3.97;;;;;;;;;;5073363;28;20456;-69
2021/06/15 01:11:51;;;;;;;5.00;3.73;;;;;;;;;;5071984;28;21001;-70
2021/06/15 01:14:29;;;;;;;4.63;4.23;;;;;;;;;;5073155;28;20398;-69
2021/06/15 01:17:04;;;;;;;7.40;4.57;;;;;;;;;;5073251;28;20452;-68
2021/06/15 01:19:35;;;;;;;4.70;4.23;;;;;;;;;;5072974;28;20420;-69
2021/06/15 01:22:22;;;;;;;5.00;4.47;;;;;;;;;;5073295;28;20415;-71
2021/06/15 01:24:52;;;;;;;7.20;4.03;;;;;;;;;;5081265;28;20469;-70
2021/06/15 01:27:27;;;;;;;5.33;4.83;;;;;;;;;;5073110;28;20770;-69
2021/06/15 01:29:56;;;;;;;4.90;4.40;;;;;;;;;;5072948;28;20406;-71
2021/06/15 01:32:28;;;;;;;5.10;4.67;;;;;;;;;;5072379;28;20448;-69
2021/06/15 01:34:55;;;;;;;5.57;4.57;;;;;;;;;;5072554;28;20846;-69
2021/06/15 01:37:24;;;;;;;7.47;4.03;;;;;;;;;;5072670;28;20425;-71
2021/06/15 01:40:01;;;;;;;5.63;4.07;;;;;;;;;;5072828;28;20471;-68
2021/06/15 01:42:30;;;;;;;4.77;4.20;;;;;;;;;;5072807;28;20775;-68
2021/06/15 01:45:01;;;;;;;4.60;4.20;;;;;;;;;;5072362;28;20406;-69
2021/06/15 01:47:27;;;;;;;5.20;4.70;;;;;;;;;;5071047;28;20441;-69
2021/06/15 01:49:55;;;;;;;4.40;4.10;;;;;;;;;;5072576;28;20762;-69
2021/06/15 01:52:23;;;;;;;6.10;4.50;;;;;;;;;;5072360;28;20422;-69
2021/06/15 01:54:50;;;;;;;6.27;4.20;;;;;;;;;;5072496;28;20871;-70
2021/06/15 01:57:20;;;;;;;4.43;3.90;;;;;;;;;;5071255;28;20418;-70
2021/06/15 01:59:47;;;;;;;5.57;5.07;;;;;;;;;;5071054;28;20449;-70
2021/06/15 02:02:14;;;;;;;4.20;3.80;;;;;;;;;;5072366;28;20494;-68
2021/06/15 02:04:48;;;;;;;6.50;3.80;;;;;;;;;;5071522;28;20458;-70
2021/06/15 02:07:15;;;;;;;6.40;4.70;;;;;;;;;;5072510;28;20468;-69
2021/06/15 02:09:43;;;;;;;5.07;4.53;;;;;;;;;;5072191;28;20406;-71
2021/06/15 02:12:10;;;;;;;5.63;4.83;;;;;;;;;;5072170;28;20406;-70
2021/06/15 02:14:37;;;;;;;10.77;5.00;;;;;;;;;;5072026;28;20406;-70
2021/06/15 02:17:03;;;;;;;7.03;4.20;;;;;;;;;;5072142;28;20423;-69
2021/06/15 02:19:31;;;;;;;4.60;4.20;;;;;;;;;;5070977;28;20434;-69
2021/06/15 02:22:05;;;;;;;4.47;4.07;;;;;;;;;;5071945;28;20413;-68
2021/06/15 02:24:33;;;;;;;5.73;4.00;;;;;;;;;;5072055;28;20418;-68
2021/06/15 02:27:00;;;;;;;4.20;3.80;;;;;;;;;;5070640;28;20474;-69
2021/06/15 02:29:26;;;;;;;4.60;4.03;;;;;;;;;;5070808;28;20418;-69
2021/06/15 02:31:55;;;;;;;3.73;3.43;;;;;;;;;;5071938;28;20868;-68
2021/06/15 02:34:22;;;;;;;5.17;4.63;;;;;;;;;;5070864;28;20410;-69
2021/06/15 02:36:48;;;;;;;5.07;4.57;;;;;;;;;;5072011;28;20438;-69
2021/06/15 02:45:05;;;;;;;5.43;4.90;;;;;;;;;;5071742;28;20421;-68
2021/06/15 02:47:32;;;;;;;5.10;4.00;;;;;;;;;;5071894;28;20425;-69
2021/06/15 02:49:59;;;;;;;5.10;4.70;;;;;;;;;;5071538;28;20820;-70
2021/06/15 02:52:43;;;;;;;5.30;4.80;;;;;;;;;;5072049;28;20438;-68
2021/06/15 02:55:12;;;;;;;6.10;4.10;;;;;;;;;;5072052;28;20414;-70
2021/06/15 02:57:38;;;;;;;4.63;4.23;;;;;;;;;;5071993;28;20418;-70
2021/06/15 03:00:06;;;;;;;4.07;3.77;;;;;;;;;;5071599;28;20409;-68
2021/06/15 03:02:32;;;;;;;5.90;4.53;;;;;;;;;;5071866;28;20468;-69
2021/06/15 03:04:58;;;;;;;4.37;4.00;;;;;;;;;;5070106;28;20445;-68
2021/06/15 03:07:24;;;;;;;6.23;4.67;;;;;;;;;;5071525;28;20430;-69
2021/06/15 03:09:50;;;;;;;5.60;5.03;;;;;;;;;;5071553;28;20412;-68
2021/06/15 03:12:23;;;;;;;9.60;6.10;;;;;;;;;;5070298;28;20935;-68
2021/06/15 03:15:17;;;;;;;9.70;5.17;;;;;;;;;;5070823;28;20952;-69
2021/06/15 03:17:48;;;;;;;5.90;4.83;;;;;;;;;;5075832;28;20440;-70
2021/06/15 03:20:16;;;;;;;6.20;5.13;;;;;;;;;;5075041;28;20429;-71
2021/06/15 03:22:58;;;;;;;5.70;4.60;;;;;;;;;;5073932;28;20425;-70
2021/06/15 03:25:26;;;;;;;5.73;5.10;;;;;;;;;;5074007;28;20454;-69
2021/06/15 03:27:57;;;;;;;7.97;5.63;;;;;;;;;;5073852;28;20433;-68
2021/06/15 03:30:26;;;;;;;6.40;4.80;;;;;;;;;;5075128;28;20399;-68
2021/06/15 03:32:57;;;;;;;6.10;5.50;;;;;;;;;;5073757;28;20430;-69
2021/06/15 03:35:24;;;;;;;5.80;4.57;;;;;;;;;;5073097;28;20508;-69
2021/06/15 03:37:57;;;;;;;5.40;4.97;;;;;;;;;;5075068;28;20406;-68
2021/06/15 03:40:25;;;;;;;5.20;4.60;;;;;;;;;;5074879;28;20402;-69
2021/06/15 03:42:52;;;;;;;8.53;5.80;;;;;;;;;;5073744;28;20882;-68
2021/06/15 03:45:18;;;;;;;7.03;5.63;;;;;;;;;;5074959;28;20556;-71
2021/06/15 03:47:45;;;;;;;5.33;4.70;;;;;;;;;;5075131;28;20418;-69
2021/06/15 03:50:13;;;;;;;5.00;4.13;;;;;;;;;;5074265;28;20409;-70
2021/06/15 03:52:39;;;;;;;6.20;5.60;;;;;;;;;;5074849;28;20425;-68
2021/06/15 03:55:07;;;;;;;5.30;4.80;;;;;;;;;;5074500;28;20425;-68
2021/06/15 03:57:34;;;;;;;6.47;5.40;;;;;;;;;;5074496;28;20420;-69
2021/06/15 04:00:02;;;;;;;8.93;5.10;;;;;;;;;;5074565;28;20472;-70
2021/06/15 04:02:29;;;;;;;6.60;4.90;;;;;;;;;;5074723;28;20440;-69
2021/06/15 04:04:56;;;;;;;5.60;5.10;;;;;;;;;;5074327;28;20406;-70
2021/06/15 04:07:24;;;;;;;5.00;4.40;;;;;;;;;;5074359;28;20476;-69
2021/06/15 04:09:51;;;;;;;7.10;5.37;;;;;;;;;;5074516;28;20421;-70
2021/06/15 04:15:21;;;;;;;7.83;5.30;;;;;;;;;;5074223;28;20441;-68
2021/06/15 04:17:49;;;;;;;4.80;4.40;;;;;;;;;;5074297;28;20510;-69
2021/06/15 04:20:19;;;;;;;5.93;4.20;;;;;;;;;;5074308;28;20459;-69
2021/06/15 04:22:46;;;;;;;6.47;3.83;;;;;;;;;;5074287;28;20840;-68
2021/06/15 04:25:15;;;;;;;4.87;4.37;;;;;;;;;;5074353;28;20425;-68
2021/06/15 04:27:41;;;;;;;4.17;3.73;;;;;;;;;;5073650;28;20529;-69
2021/06/15 04:30:07;;;;;;;5.77;5.27;;;;;;;;;;5074466;28;20410;-69
2021/06/15 04:32:47;;;;;;;9.67;4.30;;;;;;;;;;5074162;28;20444;-69
2021/06/15 04:35:14;;;;;;;5.13;4.10;;;;;;;;;;5073623;28;21007;-70
2021/06/15 04:37:41;;;;;;;4.90;4.40;;;;;;;;;;5072490;28;20449;-68
2021/06/15 04:40:20;;;;;;;6.20;5.60;;;;;;;;;;5072823;28;20422;-69
2021/06/15 04:42:52;;;;;;;6.43;4.47;;;;;;;;;;5073834;28;20417;-70
2021/06/15 04:45:28;;;;;;;5.43;5.00;;;;;;;;;;5073991;28;20464;-69
2021/06/15 04:48:03;;;;;;;9.37;4.90;;;;;;;;;;5073819;28;20876;-68
2021/06/15 04:50:29;;;;;;;4.53;4.10;;;;;;;;;;5073710;28;20408;-69
2021/06/15 04:52:56;;;;;;;6.60;4.67;;;;;;;;;;5073813;28;20560;-69
2021/06/15 04:55:26;;;;;;;5.47;4.60;;;;;;;;;;5073535;28;20413;-70
2021/06/15 04:57:53;;;;;;;5.17;4.63;;;;;;;;;;5073301;28;20472;-69
2021/06/15 05:00:22;;;;;;;4.53;4.13;;;;;;;;;;5073303;28;20475;-68
2021/06/15 05:02:49;;;;;;;6.07;4.53;;;;;;;;;;5073367;28;20402;-69
2021/06/15 05:05:16;;;;;;;5.77;4.47;;;;;;;;;;5072938;28;20406;-69
2021/06/15 05:07:42;;;;;;;7.70;4.70;;;;;;;;;;5073031;28;20417;-68
2021/06/15 05:10:09;;;;;;;6.43;4.60;;;;;;;;;;5073015;28;20493;-68
2021/06/15 05:15:42;;;;;;;8.93;5.73;;;;;;;;;;5073318;28;20413;-68
2021/06/15 05:18:09;;;;;;;13.30;5.03;;;;;;;;;;5073090;28;20410;-68
2021/06/15 05:20:35;;;;;;;10.13;5.53;;;;;;;;;;5072700;28;20418;-69
2021/06/15 05:23:07;;;;;;;14.20;6.57;;;;;;;;;;5072945;28;20458;-70
2021/06/15 05:25:33;;;;;;;8.63;4.90;;;;;;;;;;5072242;28;20489;-70
2021/06/15 05:27:59;;;;;;;8.13;6.17;;;;;;;;;;5071938;28;20426;-69
2021/06/15 05:30:25;;;;;;;12.10;5.53;;;;;;;;;;5072850;28;20446;-69
2021/06/15 05:32:51;;;;;;;18.50;4.87;;;;;;;;;;5072675;28;20844;-69
2021/06/15 05:35:17;;;;;;;6.93;5.70;;;;;;;;;;5072115;28;20506;-69
2021/06/15 05:37:44;;;;;;;7.90;4.57;;;;;;;;;;5072131;28;20411;-69
2021/06/15 05:40:11;;;;;;;7.10;5.23;;;;;;;;;;5071588;28;20406;-69
2021/06/15 05:45:40;;;;;;;5.43;4.03;;;;;;;;;;5072967;28;20958;-68
2021/06/15 05:48:06;;;;;;;4.07;3.73;;;;;;;;;;5073001;28;20779;-70
2021/06/15 05:50:32;;;;;;;3.73;2.97;;;;;;;;;;5072847;28;20418;-69
2021/06/15 05:52:58;;;;;;;3.30;3.10;;;;;;;;;;5072797;28;20421;-69
2021/06/15 05:55:24;;;;;;;4.43;3.80;;;;;;;;;;5072811;28;20428;-69
2021/06/15 05:57:50;;;;;;;3.30;3.10;;;;;;;;;;5072733;28;20410;-67
2021/06/15 06:00:17;;;;;;;10.70;4.87;;;;;;;;;;5072954;28;20426;-69
2021/06/15 06:02:43;;;;;;;14.97;6.57;;;;;;;;;;5072704;28;20428;-70
2021/06/15 06:08:04;;;;;;;17.10;6.43;;;;;;;;;;5072440;28;20446;-69
2021/06/15 06:08:05;;;;;;;22.47;6.90;;;;;;;;;;5072539;28;20452;-70
2021/06/15 06:10:31;;;;;;;12.70;6.70;;;;;;;;;;5072537;28;20425;-68
2021/06/15 06:12:57;;;;;;;14.10;6.20;;;;;;;;;;5072631;28;20861;-69
2021/06/15 06:15:23;;;;;;;17.27;6.37;;;;;;;;;;5072142;28;20442;-68
2021/06/15 06:17:49;;;;;;;12.53;6.20;;;;;;;;;;5071730;28;20417;-67
2021/06/15 06:20:16;;;;;;;19.23;6.37;;;;;;;;;;5072051;28;20421;-68
2021/06/15 06:22:42;;;;;;;15.83;6.10;;;;;;;;;;5071800;28;20418;-68
2021/06/15 06:25:11;;;;;;;16.63;5.80;;;;;;;;;;5072065;28;20430;-69
2021/06/15 06:30:40;;;;;;;16.57;6.07;;;;;;;;;;5071676;28;20483;-69
2021/06/15 06:33:06;;;;;;;16.13;6.10;;;;;;;;;;5071791;28;20505;-69
2021/06/15 06:35:32;;;;;;;15.13;5.83;;;;;;;;;;5071027;28;20489;-71
2021/06/15 06:37:58;;;;;;;10.30;7.27;;;;;;;;;;5070078;28;20418;-68
2021/06/15 06:40:25;;;;;;;18.50;6.67;;;;;;;;;;5071513;28;20421;-69
2021/06/15 06:45:55;;;;;;;4.27;3.87;;;;;;;;;;5071280;28;20538;-69
2021/06/15 06:48:21;;;;;;;7.80;5.17;;;;;;;;;;5071287;28;20432;-68
2021/06/15 06:50:47;;;;;;;9.57;5.20;;;;;;;;;;5075624;28;20429;-69
2021/06/15 06:53:13;;;;;;;8.77;5.80;;;;;;;;;;5077792;28;20418;-69
2021/06/15 06:55:39;;;;;;;6.60;5.43;;;;;;;;;;5077952;28;20416;-69
2021/06/15 07:01:08;;;;;;;6.30;5.00;;;;;;;;;;5076269;28;20937;-72
2021/06/15 07:03:34;;;;;;;7.40;4.70;;;;;;;;;;5076391;28;20410;-74
2021/06/15 07:06:00;;;;;;;7.67;4.57;;;;;;;;;;5076895;28;21015;-69
2021/06/15 07:08:26;;;;;;;7.43;4.50;;;;;;;;;;5076733;28;20446;-69
2021/06/15 07:10:53;;;;;;;6.63;4.80;;;;;;;;;;5076387;28;20457;-70
2021/06/15 07:13:19;;;;;;;5.97;5.10;;;;;;;;;;5077563;28;20406;-70
2021/06/15 07:15:45;;;;;;;6.60;4.70;;;;;;;;;;5077233;28;20417;-69
2021/06/15 07:18:11;;;;;;;5.07;4.17;;;;;;;;;;5077411;28;20417;-75
2021/06/15 07:20:37;;;;;;;7.77;4.47;;;;;;;;;;5077471;28;20414;-73
2021/06/15 07:23:03;;;;;;;5.93;4.30;;;;;;;;;;5075860;28;20439;-70
2021/06/15 07:25:29;;;;;;;10.63;5.60;;;;;;;;;;5076092;28;20468;-72
2021/06/15 07:30:59;;;;;;;7.80;4.37;;;;;;;;;;5077274;28;20436;-69
2021/06/15 07:33:28;;;;;;;5.23;4.40;;;;;;;;;;5076583;28;20491;-68
2021/06/15 07:35:54;;;;;;;5.57;4.27;;;;;;;;;;5074854;28;20534;-68
2021/06/15 07:38:20;;;;;;;5.80;4.57;;;;;;;;;;5076741;28;20432;-68
2021/06/15 07:40:46;;;;;;;5.93;4.40;;;;;;;;;;5077039;28;20418;-71
2021/06/15 07:46:16;;;;;;;7.90;4.80;;;;;;;;;;5076920;28;20772;-70
2021/06/15 07:48:43;;;;;;;9.57;4.17;;;;;;;;;;5076847;28;20418;-71
2021/06/15 07:51:09;;;;;;;9.83;3.93;;;;;;;;;;5076678;28;20422;-68
2021/06/15 07:53:35;;;;;;;7.30;3.90;;;;;;;;;;5076733;28;20413;-70
2021/06/15 08:02:08;;;;;;;7.73;4.00;;;;;;;;;;5073630;28;20778;-70
2021/06/15 08:04:34;;;;;;;7.27;4.07;;;;;;;;;;5073301;28;20410;-68
2021/06/15 08:07:00;;;;;;;6.47;4.10;;;;;;;;;;5072197;28;20542;-69
2021/06/15 08:09:26;;;;;;;4.70;3.70;;;;;;;;;;5073208;28;20410;-70
2021/06/15 08:11:52;;;;;;;6.53;3.83;;;;;;;;;;5071777;28;20449;-70
2021/06/15 08:14:18;;;;;;;7.83;3.70;;;;;;;;;;5071920;28;20905;-68
2021/06/15 08:16:44;;;;;;;4.60;3.80;;;;;;;;;;5072157;28;20426;-68
2021/06/15 08:19:10;;;;;;;11.03;5.27;;;;;;;;;;5073180;28;20745;-68
2021/06/15 08:21:36;;;;;;;7.20;4.40;;;;;;;;;;5073189;28;20425;-69
2021/06/15 08:24:02;;;;;;;8.63;4.43;;;;;;;;;;5072093;28;20440;-71
2021/06/15 08:26:28;;;;;;;5.87;3.60;;;;;;;;;;5072595;28;20496;-71
2021/06/15 08:28:54;;;;;;;13.53;4.33;;;;;;;;;;5072674;28;20795;-71
2021/06/15 08:31:20;;;;;;;4.40;3.93;;;;;;;;;;5072782;28;20430;-70
2021/06/15 08:33:46;;;;;;;10.10;3.80;;;;;;;;;;5072381;28;20809;-68
2021/06/15 08:36:12;;;;;;;8.37;3.40;;;;;;;;;;5071903;28;20493;-68
2021/06/15 08:38:38;;;;;;;5.10;4.00;;;;;;;;;;5072706;28;20415;-68
2021/06/15 08:41:04;;;;;;;7.60;4.03;;;;;;;;;;5071289;28;20789;-69
2021/06/15 08:46:34;;;;;;;10.33;2.93;;;;;;;;;;5072609;28;20511;-69
2021/06/15 08:49:00;;;;;;;11.70;3.13;;;;;;;;;;5071609;28;20422;-69
2021/06/15 08:51:27;;;;;;;3.50;3.10;;;;;;;;;;5072410;28;20826;-68
2021/06/15 08:54:02;;;;;;;5.70;3.97;;;;;;;;;;5072080;28;20422;-70
2021/06/15 08:56:33;;;;;;;10.93;3.27;;;;;;;;;;5071837;28;20426;-69
2021/06/15 08:59:18;;;;;;;8.03;3.30;;;;;;;;;;5071988;28;20843;-71
2021/06/15 09:01:45;;;;;;;3.33;3.10;;;;;;;;;;5071763;28;20422;-69
2021/06/15 09:04:11;;;;;;;4.53;2.93;;;;;;;;;;5072242;28;20414;-69
2021/06/15 09:06:37;;;;;;;5.57;3.80;;;;;;;;;;5071009;28;20576;-69
2021/06/15 09:09:03;;;;;;;3.83;3.53;;;;;;;;;;5071121;28;20422;-68
2021/06/15 09:11:47;;;;;;;8.33;3.30;;;;;;;;;;5072029;28;20467;-70
2021/06/15 09:14:13;;;;;;;5.80;3.60;;;;;;;;;;5071766;28;20405;-70
2021/06/15 09:16:44;;;;;;;5.37;3.60;;;;;;;;;;5071850;28;20896;-69
2021/06/15 09:19:15;;;;;;;6.57;3.40;;;;;;;;;;5071857;28;20421;-74
2021/06/15 09:21:41;;;;;;;4.27;3.70;;;;;;;;;;5072095;28;20467;-69
2021/06/15 09:24:12;;;;;;;5.37;4.00;;;;;;;;;;5069632;28;20434;-69
2021/06/15 09:26:55;;;;;;;6.00;3.30;;;;;;;;;;5071538;28;20573;-69
2021/06/15 09:29:33;;;;;;;5.70;3.10;;;;;;;;;;5071316;28;20422;-73
2021/06/15 09:31:59;;;;;;;4.60;3.37;;;;;;;;;;5071213;28;20413;-70
2021/06/15 09:34:25;;;;;;;5.37;3.40;;;;;;;;;;5071088;28;20414;-68
2021/06/15 09:36:53;;;;;;;3.30;2.70;;;;;;;;;;5070152;28;20430;-68
2021/06/15 09:39:19;;;;;;;3.40;3.10;;;;;;;;;;5071131;28;20410;-71
2021/06/15 09:41:46;;;;;;;6.00;3.53;;;;;;;;;;5071389;28;20430;-71
2021/06/15 09:44:13;;;;;;;6.23;3.50;;;;;;;;;;5071415;28;20414;-70
2021/06/15 09:46:46;;;;;;;4.30;3.00;;;;;;;;;;5071055;28;20527;-68
2021/06/15 09:49:13;;;;;;;4.57;3.70;;;;;;;;;;5071158;28;20422;-69
2021/06/15 09:51:40;;;;;;;4.60;3.20;;;;;;;;;;5070030;28;20430;-69
2021/06/15 09:54:06;;;;;;;4.93;3.10;;;;;;;;;;5071365;28;20418;-68
2021/06/15 09:56:32;;;;;;;3.70;3.33;;;;;;;;;;5069815;28;20418;-68
2021/06/15 10:02:01;;;;;;;8.23;3.80;;;;;;;;;;5071011;28;20928;-68
2021/06/15 10:04:28;;;;;;;3.83;3.43;;;;;;;;;;5070845;28;20406;-68
2021/06/15 10:06:58;;;;;;;5.63;3.60;;;;;;;;;;5070718;28;20493;-69
2021/06/15 10:09:31;;;;;;;4.93;3.30;;;;;;;;;;5070857;28;20743;-69
2021/06/15 10:12:02;;;;;;;5.60;3.40;;;;;;;;;;5070687;28;20459;-68
2021/06/15 10:14:29;;;;;;;7.53;3.50;;;;;;;;;;5070731;28;20410;-68
2021/06/15 10:16:55;;;;;;;3.90;3.50;;;;;;;;;;5070606;28;20411;-70
2021/06/15 10:19:22;;;;;;;3.67;2.70;;;;;;;;;;5068789;28;21002;-69
2021/06/15 10:21:48;;;;;;;5.93;2.90;;;;;;;;;;5070476;28;20541;-69
2021/06/15 10:24:16;;;;;;;5.10;3.03;;;;;;;;;;5070226;28;20468;-67
2021/06/15 10:26:42;;;;;;;4.77;3.60;;;;;;;;;;5070414;28;20476;-68
2021/06/15 10:32:13;;;;;;;5.10;3.00;;;;;;;;;;5070578;28;20807;-70
2021/06/15 10:34:47;;;;;;;4.87;3.40;;;;;;;;;;5069954;28;20462;-68
2021/06/15 10:37:32;;;;;;;4.30;2.93;;;;;;;;;;5069417;28;20434;-67
2021/06/15 10:39:59;;;;;;;4.53;2.87;;;;;;;;;;5070750;28;20432;-69
2021/06/15 10:42:25;;;;;;;3.30;3.00;;;;;;;;;;5070303;28;20406;-67
2021/06/15 10:45:10;;;;;;;3.43;3.13;;;;;;;;;;5070732;28;20763;-69
2021/06/15 10:47:36;;;;;;;4.13;3.00;;;;;;;;;;5070545;28;20541;-68
2021/06/15 10:50:02;;;;;;;4.60;2.93;;;;;;;;;;5070356;28;20948;-68
2021/06/15 10:52:47;;;;;;;10.43;3.63;;;;;;;;;;5071656;28;20776;-70
2021/06/15 10:55:40;;;;;;;4.70;2.80;;;;;;;;;;5070092;28;20432;-69
2021/06/15 10:58:06;;;;;;;4.00;3.57;;;;;;;;;;5072184;28;20533;-71
2021/06/15 11:00:42;;;;;;;3.27;2.97;;;;;;;;;;5072003;28;20402;-68
2021/06/15 11:03:17;;;;;;;4.20;3.33;;;;;;;;;;5071959;28;20509;-68
2021/06/15 11:06:03;;;;;;;3.37;3.07;;;;;;;;;;5070077;28;20457;-68
2021/06/15 11:08:30;;;;;;;4.20;2.80;;;;;;;;;;5071996;28;20426;-69
2021/06/15 11:11:00;;;;;;;6.20;3.20;;;;;;;;;;5069742;28;20479;-68
2021/06/15 11:13:40;;;;;;;2.80;2.60;;;;;;;;;;5071788;28;20767;-70
2021/06/15 11:16:06;;;;;;;4.57;3.07;;;;;;;;;;5071781;28;20422;-68
2021/06/15 11:18:32;;;;;;;4.50;2.90;;;;;;;;;;5070124;28;20501;-68
2021/06/15 11:20:58;;;;;;;3.60;3.30;;;;;;;;;;5071244;28;20418;-69
2021/06/15 11:23:25;;;;;;;6.20;2.77;;;;;;;;;;5070362;28;20429;-71
2021/06/15 11:25:52;;;;;;;3.30;3.10;;;;;;;;;;5069719;28;20454;-67
2021/06/15 11:28:36;;;;;;;3.20;2.83;;;;;;;;;;5070398;28;20524;-68
2021/06/15 11:31:18;;;;;;;3.20;3.00;;;;;;;;;;5070665;28;20552;-68
2021/06/15 11:33:59;;;;;;;3.03;2.77;;;;;;;;;;5070277;28;20418;-68
2021/06/15 11:36:43;;;;;;;3.50;2.67;;;;;;;;;;5070183;28;20469;-68
2021/06/15 11:39:26;;;;;;;3.20;2.90;;;;;;;;;;5074500;28;20421;-72
2021/06/15 11:42:16;;;;;;;3.20;2.90;;;;;;;;;;5074063;28;20410;-71
2021/06/15 11:44:46;;;;;;;3.50;2.50;;;;;;;;;;5074160;28;20430;-69
2021/06/15 11:47:24;;;;;;;3.40;2.80;;;;;;;;;;5074737;28;20470;-68
2021/06/15 11:50:04;;;;;;;7.17;2.83;;;;;;;;;;5074295;28;20424;-68
2021/06/15 11:52:31;;;;;;;4.40;2.40;;;;;;;;;;5074743;28;20407;-70
2021/06/15 11:54:58;;;;;;;4.83;2.40;;;;;;;;;;5074475;28;20429;-69
2021/06/15 11:57:24;;;;;;;3.10;2.47;;;;;;;;;;5074336;28;20782;-69
2021/06/15 11:59:50;;;;;;;5.20;2.80;;;;;;;;;;5073047;28;20575;-68
2021/06/15 12:02:19;;;;;;;5.80;3.10;;;;;;;;;;5074502;28;20500;-71
2021/06/15 12:05:18;;;;;;;3.10;2.73;;;;;;;;;;5074092;28;21000;-69
2021/06/15 12:07:51;;;;;;;3.57;3.27;;;;;;;;;;5083840;28;20450;-69
2021/06/15 12:10:17;;;;;;;5.60;2.87;;;;;;;;;;5074140;28;20519;-69
2021/06/15 12:15:51;;;;;;;3.23;2.50;;;;;;;;;;5073987;28;20464;-69
2021/06/15 12:18:23;;;;;;;4.70;3.37;;;;;;;;;;5074097;28;20414;-68
2021/06/15 12:20:53;;;;;;;3.07;2.77;;;;;;;;;;5073862;28;20417;-68
2021/06/15 12:23:38;;;;;;;3.00;2.70;;;;;;;;;;5074026;28;20433;-69
2021/06/15 12:26:28;;;;;;;4.33;2.80;;;;;;;;;;5073996;28;20458;-72
2021/06/15 12:31:58;;;;;;;3.13;2.77;;;;;;;;;;5073332;28;20503;-69
2021/06/15 12:34:25;;;;;;;3.03;2.83;;;;;;;;;;5072802;28;20896;-69
2021/06/15 12:36:53;;;;;;;7.40;3.70;;;;;;;;;;5073068;28;20432;-73
2021/06/15 12:39:27;;;;;;;6.67;3.17;;;;;;;;;;5071764;28;20430;-70
2021/06/15 12:42:01;;;;;;;3.07;2.50;;;;;;;;;;5073276;28;20472;-67
2021/06/15 12:47:30;;;;;;;4.03;2.73;;;;;;;;;;5072197;28;20962;-69
2021/06/15 12:49:57;;;;;;;4.30;2.70;;;;;;;;;;5071126;28;20422;-67
2021/06/15 12:52:33;;;;;;;2.83;2.40;;;;;;;;;;5072746;28;20897;-69
2021/06/15 12:55:09;;;;;;;4.00;2.40;;;;;;;;;;5072408;28;20899;-70
2021/06/15 12:57:35;;;;;;;5.10;2.20;;;;;;;;;;5071305;28;20430;-68
2021/06/15 13:03:06;;;;;;;2.40;2.20;;;;;;;;;;5072506;28;20417;-68
2021/06/15 13:05:32;;;;;;;3.20;2.87;;;;;;;;;;5071757;28;20469;-67
2021/06/15 13:07:59;;;;;;;2.70;2.50;;;;;;;;;;5072072;28;20455;-71
2021/06/15 13:10:25;;;;;;;5.00;2.43;;;;;;;;;;5072340;28;20497;-72
2021/06/15 13:12:54;;;;;;;6.50;2.53;;;;;;;;;;5070977;28;20440;-66
2021/06/15 13:18:29;;;;;;;3.43;2.47;;;;;;;;;;5072233;28;20405;-69
2021/06/15 13:20:58;;;;;;;3.20;2.50;;;;;;;;;;5069331;28;20410;-69
2021/06/15 13:23:24;;;;;;;2.80;2.20;;;;;;;;;;5070896;28;20757;-68
2021/06/15 13:25:50;;;;;;;3.73;3.20;;;;;;;;;;5070611;28;20453;-68
2021/06/15 13:28:21;;;;;;;2.67;2.47;;;;;;;;;;5070867;28;20912;-69
2021/06/15 13:34:02;;;;;;;2.43;2.10;;;;;;;;;;5070369;28;20852;-69
2021/06/15 13:36:28;;;;;;;4.07;2.47;;;;;;;;;;5070319;28;20550;-67
2021/06/15 13:38:55;;;;;;;4.87;2.90;;;;;;;;;;5069297;28;20445;-69
2021/06/15 13:41:25;;;;;;;2.60;2.30;;;;;;;;;;5071646;28;20759;-68
2021/06/15 13:43:51;;;;;;;2.70;2.50;;;;;;;;;;5071577;28;20446;-70
2021/06/15 13:46:18;;;;;;;7.20;2.90;;;;;;;;;;5071297;28;20861;-69
2021/06/15 13:48:44;;;;;;;3.60;2.37;;;;;;;;;;5071145;28;20900;-69
2021/06/15 13:51:14;;;;;;;2.83;2.63;;;;;;;;;;5071227;28;20410;-69
2021/06/15 13:53:40;;;;;;;6.93;2.97;;;;;;;;;;5071328;28;20521;-70
2021/06/15 13:56:06;;;;;;;4.87;3.50;;;;;;;;;;5071460;28;20736;-68
2021/06/15 14:04:20;;;;;;;2.77;2.57;;;;;;;;;;5071080;28;20780;-68
2021/06/15 14:06:47;;;;;;;2.93;2.63;;;;;;;;;;5070726;28;20466;-68
2021/06/15 14:09:13;;;;;;;3.10;2.33;;;;;;;;;;5070889;28;20418;-68
2021/06/15 14:11:40;;;;;;;4.87;2.40;;;;;;;;;;5069431;28;20434;-68
2021/06/15 14:14:06;;;;;;;2.80;2.20;;;;;;;;;;5070886;28;20768;-68
2021/06/15 14:16:32;;;;;;;6.47;2.70;;;;;;;;;;5069362;28;20426;-68
2021/06/15 14:18:58;;;;;;;2.87;2.30;;;;;;;;;;5070725;28;20468;-68
2021/06/15 14:21:24;;;;;;;2.50;2.30;;;;;;;;;;5071818;28;20428;-70
2021/06/15 14:23:50;;;;;;;2.40;2.20;;;;;;;;;;5071953;28;20418;-68
2021/06/15 14:26:16;;;;;;;2.37;2.17;;;;;;;;;;5070427;28;20473;-68
2021/06/15 14:34:30;;;;;;;4.63;2.10;;;;;;;;;;5071184;28;20508;-68
2021/06/15 14:36:56;;;;;;;3.10;2.53;;;;;;;;;;5071758;28;20493;-80
2021/06/15 14:39:22;;;;;;;6.37;2.50;;;;;;;;;;5072019;28;20508;-70
2021/06/15 14:41:48;;;;;;;2.30;2.10;;;;;;;;;;5071898;28;20449;-68
2021/06/15 14:44:15;;;;;;;3.50;1.93;;;;;;;;;;5072060;28;20467;-68
2021/06/15 14:46:41;;;;;;;2.70;2.17;;;;;;;;;;5071816;28;20470;-68
2021/06/15 14:49:10;;;;;;;4.50;2.10;;;;;;;;;;5071709;28;20414;-68
2021/06/15 14:51:36;;;;;;;2.17;1.83;;;;;;;;;;5070509;28;20965;-68
2021/06/15 14:54:05;;;;;;;2.10;1.80;;;;;;;;;;5070682;28;20449;-69
2021/06/15 14:56:35;;;;;;;4.10;3.20;;;;;;;;;;5069557;28;20883;-68
2021/06/15 14:59:01;;;;;;;3.80;1.80;;;;;;;;;;5070591;28;20896;-67
2021/06/15 15:01:27;;;;;;;3.27;1.90;;;;;;;;;;5070775;28;20410;-69
2021/06/15 15:03:53;;;;;;;2.00;1.83;;;;;;;;;;5070409;28;20562;-70
2021/06/15 15:06:19;;;;;;;3.60;2.50;;;;;;;;;;5070325;28;20951;-71
2021/06/15 15:08:45;;;;;;;2.33;2.23;;;;;;;;;;5070472;28;20414;-71
2021/06/15 15:11:11;;;;;;;1.90;1.80;;;;;;;;;;5071763;28;20426;-68
2021/06/15 15:13:37;;;;;;;3.50;1.80;;;;;;;;;;5074503;28;20777;-69
2021/06/15 15:19:07;;;;;;;2.33;2.10;;;;;;;;;;5074301;28;20801;-68
2021/06/15 15:21:34;;;;;;;3.80;2.10;;;;;;;;;;5074291;28;20400;-69
2021/06/15 15:24:00;;;;;;;4.87;1.87;;;;;;;;;;5074411;28;20428;-68
2021/06/15 15:26:27;;;;;;;4.23;2.10;;;;;;;;;;5073920;28;20472;-68
2021/06/15 15:28:54;;;;;;;2.40;1.90;;;;;;;;;;5074155;28;20800;-69
2021/06/15 15:34:24;;;;;;;2.80;2.00;;;;;;;;;;5073764;28;20456;-72
2021/06/15 15:36:50;;;;;;;4.33;1.77;;;;;;;;;;5073810;28;20418;-70
2021/06/15 15:39:16;;;;;;;4.03;2.20;;;;;;;;;;5074206;28;20489;-69
2021/06/15 15:41:42;;;;;;;3.00;2.80;;;;;;;;;;5074080;28;20486;-69
2021/06/15 15:49:57;;;;;;;3.10;2.60;;;;;;;;;;5073774;28;20409;-69
2021/06/15 15:52:23;;;;;;;3.33;2.70;;;;;;;;;;5073640;28;20936;-67
2021/06/15 15:54:49;;;;;;;3.10;2.30;;;;;;;;;;5073882;28;20790;-68
2021/06/15 15:57:16;;;;;;;5.97;2.00;;;;;;;;;;5073698;28;20428;-68
2021/06/15 15:59:43;;;;;;;2.00;1.80;;;;;;;;;;5072288;28;20509;-69
2021/06/15 16:02:10;;;;;;;2.47;2.27;;;;;;;;;;5072267;28;20425;-69
2021/06/15 16:04:38;;;;;;;2.00;1.80;;;;;;;;;;5073136;28;20441;-68
2021/06/15 16:07:05;;;;;;;4.47;2.00;;;;;;;;;;5073764;28;20526;-69
2021/06/15 16:09:31;;;;;;;1.77;1.67;;;;;;;;;;5073597;28;20418;-68
2021/06/15 16:11:57;;;;;;;3.00;2.20;;;;;;;;;;5073515;28;20413;-69
2021/06/15 16:14:23;;;;;;;3.73;2.20;;;;;;;;;;5072112;28;20806;-69
2021/06/15 16:16:49;;;;;;;2.93;1.87;;;;;;;;;;5073280;28;20900;-69
2021/06/15 16:19:15;;;;;;;2.33;1.87;;;;;;;;;;5073357;28;20997;-69
2021/06/15 16:21:42;;;;;;;2.60;1.53;;;;;;;;;;5072213;28;20418;-67
2021/06/15 16:24:08;;;;;;;4.70;2.13;;;;;;;;;;5070768;28;20432;-69
2021/06/15 16:26:35;;;;;;;4.90;2.00;;;;;;;;;;5073347;28;20497;-68
2021/06/15 16:29:01;;;;;;;7.53;2.30;;;;;;;;;;5072968;28;20504;-69